createdAt,value
2022-09-16T00:00:48.250Z,100203.38
2022-09-16T00:03:16.875Z,100197.28
2022-09-16T00:05:51.884Z,100199.88
2022-09-16T00:08:19.666Z,100201.59
2022-09-16T00:10:46.145Z,100190.25
2022-09-16T00:13:14.085Z,100196.31
2022-09-16T00:15:45.121Z,100194.53
2022-09-16T00:18:12.176Z,100195.44
2022-09-16T00:20:44.498Z,100190.94
2022-09-16T00:23:10.946Z,100197.94
2022-09-16T00:25:37.372Z,100192.91
2022-09-16T00:28:03.910Z,100197.19
2022-09-16T00:30:30.324Z,100195.56
2022-09-16T00:32:56.771Z,100198.06
2022-09-16T00:35:23.384Z,100191.19
2022-09-16T00:37:50.323Z,100187.81
2022-09-16T00:40:16.839Z,100190.50
2022-09-16T00:42:43.294Z,100191.38
2022-09-16T00:45:19.920Z,100193.06
2022-09-16T00:47:57.381Z,100192.97
2022-09-16T00:50:40.943Z,100194.63
2022-09-16T00:53:12.927Z,100195.56
2022-09-16T00:55:39.656Z,100203.38
2022-09-16T00:58:29.233Z,100198.09
2022-09-16T01:00:55.692Z,100193.69
2022-09-16T01:03:23.578Z,100192.00
2022-09-16T01:05:50.365Z,100193.75
2022-09-16T01:08:16.811Z,100192.97
2022-09-16T01:10:43.537Z,100193.06
2022-09-16T01:13:14.475Z,100193.97
2022-09-16T01:16:14.809Z,100191.53
2022-09-16T01:18:53.481Z,100197.59
2022-09-16T01:21:40.921Z,100195.72
2022-09-16T01:24:19.349Z,100196.63
2022-09-16T01:26:55.318Z,100193.25
2022-09-16T01:29:33.907Z,100193.25
2022-09-16T01:32:16.938Z,100180.13
2022-09-16T01:34:53.444Z,100193.19
2022-09-16T01:37:33.995Z,100189.75
2022-09-16T01:40:20.086Z,100193.06
2022-09-16T01:43:09.018Z,100185.38
2022-09-16T01:45:46.740Z,100197.69
2022-09-16T01:48:27.595Z,100187.16
2022-09-16T01:51:05.307Z,100187.16
2022-09-16T01:53:36.332Z,100189.78
2022-09-16T01:56:33.526Z,100189.75
2022-09-16T01:59:09.465Z,100195.81
2022-09-16T02:02:00.450Z,100188.78
2022-09-16T02:04:44.238Z,100188.00
2022-09-16T02:07:13.036Z,100188.03
2022-09-16T02:09:46.064Z,100187.16
2022-09-16T02:12:21.025Z,100185.41
2022-09-16T02:14:50.725Z,100177.59
2022-09-16T02:17:22.253Z,100179.28
2022-09-16T02:20:02.904Z,100186.34
2022-09-16T02:22:39.419Z,100188.13
2022-09-16T02:25:08.405Z,100180.25
2022-09-16T02:27:38.194Z,100186.38
2022-09-16T02:30:11.180Z,100187.25
2022-09-16T02:32:42.050Z,100182.03
2022-09-16T02:35:12.284Z,100185.50
2022-09-16T02:37:53.168Z,100174.16
2022-09-16T02:40:44.614Z,100186.34
2022-09-16T02:43:11.176Z,100184.59
2022-09-16T02:45:52.732Z,100191.44
2022-09-16T02:48:30.067Z,100181.94
2022-09-16T02:51:11.765Z,100186.28
2022-09-16T02:53:41.241Z,100191.53
2022-09-16T02:56:32.410Z,100182.75
2022-09-16T02:59:00.780Z,100191.41
2022-09-16T03:01:30.703Z,100178.44
2022-09-16T03:03:57.220Z,100184.53
2022-09-16T03:06:25.601Z,100184.66
2022-09-16T03:08:55.371Z,100189.88
2022-09-16T03:11:34.944Z,100187.16
2022-09-16T03:14:07.842Z,100185.41
2022-09-16T03:16:46.076Z,100169.75
2022-09-16T03:19:32.957Z,100174.16
2022-09-16T03:22:25.303Z,100177.56
2022-09-16T03:25:07.910Z,100174.97
2022-09-16T03:27:41.298Z,100168.78
2022-09-16T03:30:10.280Z,100162.66
2022-09-16T03:32:54.079Z,100164.50
2022-09-16T03:35:45.759Z,100168.88
2022-09-16T03:38:13.736Z,100166.22
2022-09-16T03:40:42.274Z,100166.25
2022-09-16T03:43:13.300Z,100167.22
2022-09-16T03:45:42.802Z,100158.56
2022-09-16T03:48:10.657Z,100166.31
2022-09-16T03:50:37.110Z,100169.91
2022-09-16T03:53:03.908Z,100165.63
2022-09-16T03:55:30.523Z,100160.44
2022-09-16T03:57:56.923Z,100159.38
2022-09-16T04:00:23.376Z,100153.34
2022-09-16T04:02:49.857Z,100162.06
2022-09-16T04:05:16.867Z,100162.91
2022-09-16T04:07:43.371Z,100162.00
2022-09-16T04:10:12.234Z,100156.84
2022-09-16T04:12:38.720Z,100167.22
2022-09-16T04:15:05.660Z,100161.13
2022-09-16T04:17:32.919Z,100159.44
2022-09-16T04:19:59.689Z,100155.03
2022-09-16T04:22:29.740Z,100152.47
2022-09-16T04:24:56.862Z,100151.53
2022-09-16T04:27:24.536Z,100156.84
2022-09-16T04:29:50.949Z,100149.00
2022-09-16T04:32:17.390Z,100154.22
2022-09-16T04:34:43.962Z,100158.59
2022-09-16T04:37:10.366Z,100149.03
2022-09-16T04:39:36.773Z,100149.09
2022-09-16T04:42:05.463Z,100162.94
2022-09-16T04:44:31.874Z,100162.00
2022-09-16T04:46:58.279Z,100151.53
2022-09-16T04:49:25.226Z,100139.44
2022-09-16T04:51:52.147Z,100142.13
2022-09-16T04:54:18.660Z,100143.00
2022-09-16T04:56:45.057Z,100144.75
2022-09-16T04:59:11.517Z,100141.25
2022-09-16T05:01:39.347Z,100149.91
2022-09-16T05:04:07.589Z,100144.69
2022-09-16T05:06:36.823Z,100151.66
2022-09-16T05:09:03.817Z,100156.09
2022-09-16T05:11:33.766Z,100151.88
2022-09-16T05:14:01.780Z,100157.84
2022-09-16T05:16:29.232Z,100157.78
2022-09-16T05:18:57.696Z,100153.56
2022-09-16T05:21:26.684Z,100154.41
2022-09-16T05:23:53.487Z,100150.91
2022-09-16T05:26:26.587Z,100160.53
2022-09-16T05:28:53.651Z,100157.09
2022-09-16T05:31:26.615Z,100169.19
2022-09-16T05:34:11.008Z,100167.53
2022-09-16T05:36:40.129Z,100158.78
2022-09-16T05:39:24.499Z,100169.16
2022-09-16T05:41:59.669Z,100172.63
2022-09-16T05:44:27.420Z,100165.84
2022-09-16T05:46:54.746Z,100164.00
2022-09-16T05:49:21.554Z,100162.31
2022-09-16T05:51:48.447Z,100157.03
2022-09-16T05:54:15.360Z,100160.53
2022-09-16T05:56:42.980Z,100169.28
2022-09-16T05:59:11.502Z,100172.75
2022-09-16T06:01:38.593Z,100167.47
2022-09-16T06:04:07.116Z,100170.16
2022-09-16T06:06:36.152Z,100169.22
2022-09-16T06:09:08.767Z,100174.44
2022-09-16T06:11:43.945Z,100171.78
2022-09-16T06:14:11.129Z,100170.06
2022-09-16T06:16:37.649Z,100158.69
2022-09-16T06:19:10.472Z,100168.25
2022-09-16T06:21:38.144Z,100166.44
2022-09-16T06:24:08.772Z,100168.19
2022-09-16T06:26:37.284Z,100164.69
2022-09-16T06:29:05.637Z,100163.13
2022-09-16T06:31:32.926Z,100165.63
2022-09-16T06:33:59.542Z,100167.41
2022-09-16T06:36:28.789Z,100166.34
2022-09-16T06:38:55.593Z,100170.72
2022-09-16T06:41:23.030Z,100169.13
2022-09-16T06:43:53.686Z,100166.59
2022-09-16T06:46:23.110Z,100168.25
2022-09-16T06:48:52.344Z,100166.44
2022-09-16T06:51:22.755Z,100159.63
2022-09-16T06:53:50.537Z,100154.25
2022-09-16T06:56:19.176Z,100159.56
2022-09-16T06:58:51.972Z,100164.72
2022-09-16T07:01:24.480Z,100155.84
2022-09-16T07:03:52.408Z,100157.66
2022-09-16T07:06:20.768Z,100161.00
2022-09-16T07:08:47.509Z,100157.72
2022-09-16T07:11:16.688Z,100167.22
2022-09-16T07:13:44.212Z,100153.34
2022-09-16T07:16:16.438Z,100166.34
2022-09-16T07:18:43.691Z,100168.81
2022-09-16T07:21:14.434Z,100173.06
2022-09-16T07:23:41.937Z,100166.91
2022-09-16T07:26:20.665Z,100178.97
2022-09-16T07:28:49.617Z,100181.75
2022-09-16T07:31:19.300Z,100172.03
2022-09-16T07:33:48.615Z,100179.13
2022-09-16T07:36:18.734Z,100170.41
2022-09-16T07:38:45.288Z,100170.38
2022-09-16T07:41:14.590Z,100187.00
2022-09-16T07:43:42.925Z,100188.75
2022-09-16T07:46:11.710Z,100184.38
2022-09-16T07:48:39.193Z,100186.88
2022-09-16T07:51:10.973Z,100192.19
2022-09-16T07:53:38.539Z,100187.84
2022-09-16T07:56:07.441Z,100190.38
2022-09-16T07:58:34.259Z,100180.72
2022-09-16T08:01:04.509Z,100189.34
2022-09-16T08:03:35.873Z,100189.22
2022-09-16T08:06:05.826Z,100184.88
2022-09-16T08:08:33.046Z,100186.59
2022-09-16T08:11:00.739Z,100189.47
2022-09-16T08:13:29.252Z,100198.81
2022-09-16T08:15:59.970Z,100189.81
2022-09-16T08:18:26.376Z,100183.81
2022-09-16T08:20:52.795Z,100183.13
2022-09-16T08:23:19.288Z,100194.31
2022-09-16T08:25:47.002Z,100195.22
2022-09-16T08:28:15.352Z,100187.22
2022-09-16T08:30:42.789Z,100191.44
2022-09-16T08:33:09.713Z,100181.81
2022-09-16T08:35:36.415Z,100188.75
2022-09-16T08:38:02.922Z,100182.44
2022-09-16T08:40:36.373Z,100187.66
2022-09-16T08:43:33.634Z,100190.38
2022-09-16T08:46:10.147Z,100196.13
2022-09-16T08:49:09.271Z,100196.13
2022-09-16T08:51:35.906Z,100190.75
2022-09-16T08:54:11.606Z,100200.97
2022-09-16T08:56:40.375Z,100193.84
2022-09-16T08:59:23.158Z,100196.88
2022-09-16T09:02:09.471Z,100204.72
2022-09-16T09:04:36.375Z,100210.66
2022-09-16T09:07:24.174Z,100201.91
2022-09-16T09:10:00.823Z,100199.34
2022-09-16T09:12:41.515Z,100205.28
2022-09-16T09:15:11.936Z,100208.06
2022-09-16T09:17:48.814Z,100204.75
2022-09-16T09:20:24.078Z,100202.66
2022-09-16T09:23:40.433Z,100199.41
2022-09-16T09:26:13.715Z,100201.22
2022-09-16T09:28:40.196Z,100199.66
2022-09-16T09:31:27.030Z,100185.47
2022-09-16T09:34:00.002Z,100189.66
2022-09-16T09:36:53.721Z,100202.16
2022-09-16T09:39:35.023Z,100198.28
2022-09-16T09:42:24.680Z,100186.34
2022-09-16T09:45:04.554Z,100192.09
2022-09-16T09:47:41.508Z,100178.31
2022-09-16T09:50:36.650Z,100187.75
2022-09-16T09:53:29.193Z,100178.50
2022-09-16T09:56:20.223Z,100172.91
2022-09-16T09:59:03.043Z,100173.75
2022-09-16T10:01:29.572Z,100184.25
2022-09-16T10:03:57.825Z,100166.13
2022-09-16T10:06:34.620Z,100184.63
2022-09-16T10:09:01.189Z,100169.06
2022-09-16T10:11:33.684Z,100177.28
2022-09-16T10:14:02.104Z,100174.84
2022-09-16T10:16:37.150Z,100170.69
2022-09-16T10:19:08.864Z,100161.69
2022-09-16T10:21:48.462Z,100163.53
2022-09-16T10:24:30.127Z,100163.47
2022-09-16T10:26:58.026Z,100172.81
2022-09-16T10:29:24.741Z,100161.44
2022-09-16T10:31:51.778Z,100162.31
2022-09-16T10:34:31.169Z,100162.19
2022-09-16T10:37:06.066Z,100163.22
2022-09-16T10:39:33.087Z,100158.09
2022-09-16T10:42:00.448Z,100160.47
2022-09-16T10:44:32.920Z,100150.00
2022-09-16T10:47:09.283Z,100136.78
2022-09-16T10:49:49.203Z,100142.84
2022-09-16T10:52:23.464Z,100151.25
2022-09-16T10:54:50.165Z,100143.16
2022-09-16T10:57:36.276Z,100134.56
2022-09-16T11:00:23.813Z,100140.66
2022-09-16T11:03:19.612Z,100134.44
2022-09-16T11:06:23.719Z,100140.34
2022-09-16T11:09:10.604Z,100137.06
2022-09-16T11:12:06.392Z,100139.56
2022-09-16T11:14:52.092Z,100130.13
2022-09-16T11:17:43.176Z,100130.75
2022-09-16T11:20:24.725Z,100134.00
2022-09-16T11:23:14.957Z,100125.44
2022-09-16T11:25:41.419Z,100124.75
2022-09-16T11:28:19.489Z,100107.69
2022-09-16T11:30:55.391Z,100111.00
2022-09-16T11:33:40.663Z,100121.41
2022-09-16T11:36:21.962Z,100136.34
2022-09-16T11:38:55.199Z,100133.03
2022-09-16T11:41:29.818Z,100136.75
2022-09-16T11:44:22.414Z,100134.94
2022-09-16T11:47:05.184Z,100121.53
2022-09-16T11:50:03.373Z,100131.00
2022-09-16T11:52:52.041Z,100127.91
2022-09-16T11:55:31.767Z,100122.88
2022-09-16T11:58:17.762Z,100121.94
2022-09-16T12:00:46.010Z,100119.03
2022-09-16T12:03:37.761Z,100132.34
2022-09-16T12:06:11.706Z,100134.88
2022-09-16T12:09:03.760Z,100136.00
2022-09-16T12:11:39.549Z,100167.16
2022-09-16T12:14:28.475Z,100187.41
2022-09-16T12:17:01.675Z,100179.34
2022-09-16T12:19:33.903Z,100190.84
2022-09-16T12:22:21.784Z,100188.78
2022-09-16T12:25:07.249Z,100188.84
2022-09-16T12:28:10.501Z,100174.34
2022-09-16T12:30:42.190Z,100178.75
2022-09-16T12:33:26.036Z,100154.28
2022-09-16T12:35:57.164Z,100155.97
2022-09-16T12:38:23.960Z,100136.25
2022-09-16T12:41:19.529Z,100138.69
2022-09-16T12:44:02.198Z,100132.06
2022-09-16T12:47:00.924Z,100130.22
2022-09-16T12:49:33.209Z,100124.78
2022-09-16T12:52:19.520Z,100126.00
2022-09-16T12:55:08.099Z,100125.31
2022-09-16T12:57:37.753Z,100128.97
2022-09-16T13:00:10.335Z,100118.19
2022-09-16T13:02:41.577Z,100117.44
2022-09-16T13:05:17.527Z,100110.63
2022-09-16T13:07:50.421Z,100110.19
2022-09-16T13:10:46.743Z,100116.38
2022-09-16T13:13:29.844Z,100096.88
2022-09-16T13:15:58.582Z,100097.63
2022-09-16T13:18:38.460Z,100099.28
2022-09-16T13:21:16.315Z,100079.94
2022-09-16T13:23:50.832Z,100084.94
2022-09-16T13:26:17.279Z,100098.50
2022-09-16T13:28:46.181Z,100096.13
2022-09-16T13:31:12.806Z,100105.94
2022-09-16T13:33:47.648Z,100096.56
2022-09-16T13:36:31.742Z,100102.06
2022-09-16T13:39:03.657Z,100103.41
2022-09-16T13:41:35.964Z,100103.69
2022-09-16T13:44:24.241Z,100092.00
2022-09-16T13:46:50.781Z,100087.47
2022-09-16T13:49:25.865Z,100097.94
2022-09-16T13:51:52.735Z,100080.13
2022-09-16T13:54:27.969Z,100109.03
2022-09-16T13:57:28.923Z,100100.28
2022-09-16T14:00:02.197Z,100101.75
2022-09-16T14:02:39.656Z,100090.25
2022-09-16T14:05:33.347Z,100088.91
2022-09-16T14:08:09.681Z,100086.19
2022-09-16T14:11:03.865Z,100076.22
2022-09-16T14:13:49.616Z,100082.53
2022-09-16T14:16:21.596Z,100091.69
2022-09-16T14:19:07.968Z,100095.38
2022-09-16T14:21:34.663Z,100087.03
2022-09-16T14:24:17.287Z,100079.44
2022-09-16T14:26:57.265Z,100079.72
2022-09-16T14:29:25.056Z,100071.56
2022-09-16T14:31:54.011Z,100080.00
2022-09-16T14:34:46.779Z,100076.91
2022-09-16T14:37:17.024Z,100075.16
2022-09-16T14:39:43.909Z,100065.47
2022-09-16T14:42:16.571Z,100066.84
2022-09-16T14:44:47.381Z,100072.03
2022-09-16T14:47:47.245Z,100100.63
2022-09-16T14:50:24.048Z,100129.59
2022-09-16T14:52:54.980Z,100121.78
2022-09-16T14:55:23.535Z,100123.63
2022-09-16T14:57:50.382Z,100112.28
2022-09-16T15:00:19.176Z,100126.38
2022-09-16T15:03:04.718Z,100136.25
2022-09-16T15:05:34.259Z,100117.81
2022-09-16T15:08:19.448Z,100124.97
2022-09-16T15:10:55.453Z,100122.47
2022-09-16T15:13:26.411Z,100123.16
2022-09-16T15:15:55.964Z,100120.59
2022-09-16T15:18:22.309Z,100118.81
2022-09-16T15:21:00.838Z,100110.84
2022-09-16T15:23:28.964Z,100117.00
2022-09-16T15:26:11.613Z,100105.50
2022-09-16T15:28:38.200Z,100099.81
2022-09-16T15:31:05.448Z,100100.31
2022-09-16T15:33:42.240Z,100088.03
2022-09-16T15:36:33.008Z,100089.59
2022-09-16T15:38:59.531Z,100095.53
2022-09-16T15:41:26.045Z,100097.97
2022-09-16T15:43:52.818Z,100089.00
2022-09-16T15:46:22.545Z,100101.94
2022-09-16T15:48:55.529Z,100102.78
2022-09-16T15:51:24.690Z,100097.53
2022-09-16T15:54:17.102Z,100094.53
2022-09-16T15:57:02.049Z,100107.06
2022-09-16T15:59:37.688Z,100102.09
2022-09-16T16:02:22.745Z,100109.16
2022-09-16T16:04:50.721Z,100096.97
2022-09-16T16:07:44.866Z,100089.19
2022-09-16T16:10:15.160Z,100088.16
2022-09-16T16:12:41.607Z,100075.72
2022-09-16T16:15:08.529Z,100075.63
2022-09-16T16:17:34.995Z,100075.53
2022-09-16T16:20:02.216Z,100079.91
2022-09-16T16:22:29.043Z,100075.31
2022-09-16T16:24:55.568Z,100038.28
2022-09-16T16:27:21.993Z,100080.00
2022-09-16T16:29:48.416Z,100081.22
2022-09-16T16:32:16.460Z,100087.47
2022-09-16T16:34:45.264Z,100089.09
2022-09-16T16:37:33.806Z,100076.72
2022-09-16T16:40:00.609Z,100081.94
2022-09-16T16:42:28.706Z,100077.44
2022-09-16T16:44:56.453Z,100082.69
2022-09-16T16:47:23.892Z,100087.09
2022-09-16T16:49:51.691Z,100079.84
2022-09-16T16:52:18.164Z,100087.88
2022-09-16T16:54:45.711Z,100082.63
2022-09-16T16:57:12.386Z,100085.97
2022-09-16T16:59:38.910Z,100080.72
2022-09-16T17:02:06.076Z,100088.59
2022-09-16T17:04:32.525Z,100093.72
2022-09-16T17:07:24.237Z,100096.06
2022-09-16T17:09:45.391Z,100108.44
2022-09-16T17:12:12.881Z,100106.28
2022-09-16T17:14:39.364Z,100107.97
2022-09-16T17:17:05.888Z,100111.97
2022-09-16T17:19:32.702Z,100118.13
2022-09-16T17:21:59.147Z,100123.19
2022-09-16T17:24:25.708Z,100124.81
2022-09-16T17:26:52.383Z,100117.09
2022-09-16T17:29:18.858Z,100115.50
2022-09-16T17:31:45.448Z,100125.84
2022-09-16T17:34:14.386Z,100122.50
2022-09-16T17:36:45.100Z,100125.91
2022-09-16T17:39:14.983Z,100122.19
2022-09-16T17:41:45.750Z,100131.19
2022-09-16T17:44:13.613Z,100124.81
2022-09-16T17:46:41.555Z,100132.97
2022-09-16T17:49:13.602Z,100117.44
2022-09-16T17:51:40.178Z,100118.34
2022-09-16T17:54:08.616Z,100115.44
2022-09-16T17:56:35.506Z,100124.97
2022-09-16T17:59:02.195Z,100123.22
2022-09-16T18:01:30.573Z,100125.66
2022-09-16T18:03:57.728Z,100117.78
2022-09-16T18:06:27.917Z,100124.75
2022-09-16T18:08:55.097Z,100119.69
2022-09-16T18:11:22.186Z,100124.00
2022-09-16T18:13:55.088Z,100120.56
2022-09-16T18:16:22.304Z,100125.28
2022-09-16T18:18:54.328Z,100129.66
2022-09-16T18:21:21.759Z,100142.69
2022-09-16T18:23:51.428Z,100147.41
2022-09-16T18:26:18.862Z,100161.31
2022-09-16T18:29:08.650Z,100168.41
2022-09-16T18:31:34.827Z,100140.66
2022-09-16T18:34:01.392Z,100160.56
2022-09-16T18:36:29.947Z,100156.28
2022-09-16T18:38:58.220Z,100151.06
2022-09-16T18:41:27.894Z,100147.75
2022-09-16T18:43:55.490Z,100154.59
2022-09-16T18:46:26.727Z,100153.69
2022-09-16T18:48:53.949Z,100163.44
2022-09-16T18:51:22.627Z,100152.28
2022-09-16T18:53:51.346Z,100165.09
2022-09-16T18:56:19.650Z,100159.06
2022-09-16T18:59:03.719Z,100141.63
2022-09-16T19:01:35.102Z,100162.56
2022-09-16T19:04:04.747Z,100157.22
2022-09-16T19:06:34.152Z,100149.63
2022-09-16T19:09:01.602Z,100155.50
2022-09-16T19:11:28.459Z,100155.69
2022-09-16T19:13:55.722Z,100144.41
2022-09-16T19:16:22.565Z,100172.28
2022-09-16T19:18:53.364Z,100165.56
2022-09-16T19:21:21.724Z,100175.03
2022-09-16T19:23:57.291Z,100173.63
2022-09-16T19:26:25.400Z,100172.75
2022-09-16T19:28:52.122Z,100178.72
2022-09-16T19:31:19.113Z,100186.56
2022-09-16T19:33:45.811Z,100191.91
2022-09-16T19:36:19.005Z,100182.41
2022-09-16T19:38:47.657Z,100179.72
2022-09-16T19:41:14.824Z,100180.63
2022-09-16T19:43:42.127Z,100174.53
2022-09-16T19:46:10.286Z,100185.75
2022-09-16T19:48:38.709Z,100182.47
2022-09-16T19:51:07.010Z,100192.78
2022-09-16T19:53:35.152Z,100195.28
2022-09-16T19:56:13.927Z,100178.84
2022-09-16T19:58:40.979Z,100191.78
2022-09-16T20:01:08.550Z,100184.03
2022-09-16T20:03:39.525Z,100189.31
2022-09-16T20:06:13.058Z,100194.59
2022-09-16T20:08:41.601Z,100185.75
2022-09-16T20:11:09.657Z,100184.94
2022-09-16T20:13:36.402Z,100190.13
2022-09-16T20:16:05.483Z,100196.25
2022-09-16T20:18:33.104Z,100192.78
2022-09-16T20:21:04.404Z,100198.97
2022-09-16T20:23:31.279Z,100202.47
2022-09-16T20:25:59.308Z,100196.44
2022-09-16T20:28:33.008Z,100198.13
2022-09-16T20:30:59.743Z,100197.25
2022-09-16T20:33:31.272Z,100203.28
2022-09-16T20:36:07.778Z,100206.03
2022-09-16T20:38:36.613Z,100207.72
2022-09-16T20:41:15.883Z,100199.88
2022-09-16T20:43:42.957Z,100199.03
2022-09-16T20:46:12.244Z,100202.47
2022-09-16T20:48:39.796Z,100203.44
2022-09-16T20:51:08.933Z,100219.06
2022-09-16T20:53:36.637Z,100216.44
2022-09-16T20:56:06.145Z,100216.47
2022-09-16T20:58:36.290Z,100210.41
2022-09-16T21:01:07.723Z,100216.47
2022-09-16T21:03:34.993Z,100220.00
2022-09-16T21:06:06.265Z,100215.66
2022-09-16T21:08:34.291Z,100215.63
2022-09-16T21:11:06.544Z,100231.31
2022-09-16T21:13:33.564Z,100231.28
2022-09-16T21:16:00.744Z,100220.84
2022-09-16T21:18:27.938Z,100225.22
2022-09-16T21:21:07.533Z,100226.94
2022-09-16T21:23:34.612Z,100226.06
2022-09-16T21:26:04.986Z,100238.22
2022-09-16T21:28:33.185Z,100239.09
2022-09-16T21:31:05.193Z,100233.91
2022-09-16T21:33:33.802Z,100243.47
2022-09-16T21:36:00.192Z,100236.53
2022-09-16T21:38:28.091Z,100234.78
2022-09-16T21:40:56.156Z,100233.91
2022-09-16T21:43:24.326Z,100234.78
2022-09-16T21:45:50.778Z,100234.75
2022-09-16T21:48:19.450Z,100227.81
2022-09-16T21:50:47.748Z,100221.75
2022-09-16T21:53:14.988Z,100229.56
2022-09-16T21:55:41.878Z,100245.22
2022-09-16T21:58:08.798Z,100240.88
2022-09-16T22:00:37.893Z,100232.19
2022-09-16T22:03:05.696Z,100237.41
2022-09-16T22:05:33.080Z,100241.75
2022-09-16T22:08:01.059Z,100236.53
2022-09-16T22:10:29.269Z,100238.25
2022-09-16T22:12:56.046Z,100247.81
2022-09-16T22:15:24.145Z,100235.66
2022-09-16T22:17:54.060Z,100249.56
2022-09-16T22:20:23.972Z,100241.72
2022-09-16T22:22:50.540Z,100242.59
2022-09-16T22:25:17.011Z,100247.84
2022-09-16T22:27:43.455Z,100234.75
2022-09-16T22:30:11.127Z,100236.53
2022-09-16T22:32:40.909Z,100240.03
2022-09-16T22:35:08.614Z,100225.25
2022-09-16T22:37:35.008Z,100232.19
2022-09-16T22:40:02.012Z,100225.25
2022-09-16T22:42:28.586Z,100232.19
2022-09-16T22:44:55.124Z,100225.22
2022-09-16T22:47:21.536Z,100213.94
2022-09-16T22:49:47.943Z,100228.72
2022-09-16T22:52:14.349Z,100221.75
2022-09-16T22:54:40.995Z,100221.75
2022-09-16T22:57:07.583Z,100234.78
2022-09-16T22:59:34.373Z,100231.31
2022-09-16T23:02:00.820Z,100240.84
2022-09-16T23:04:27.485Z,100240.00
2022-09-16T23:06:54.009Z,100233.94
2022-09-16T23:09:20.523Z,100241.75
2022-09-16T23:11:46.936Z,100247.81
2022-09-16T23:14:15.414Z,100246.09
2022-09-16T23:16:42.021Z,100253.91
2022-09-16T23:19:11.380Z,100248.69
2022-09-16T23:21:38.786Z,100253.03
2022-09-16T23:24:06.840Z,100258.25
2022-09-16T23:26:35.851Z,100258.25
2022-09-16T23:29:04.644Z,100244.34
2022-09-16T23:31:35.672Z,100247.84
2022-09-16T23:34:07.534Z,100252.16
2022-09-16T23:36:37.521Z,100255.66
2022-09-16T23:39:06.051Z,100257.38
2022-09-16T23:41:32.732Z,100250.44
2022-09-16T23:43:59.278Z,100245.22
2022-09-16T23:46:29.238Z,100260.88
2022-09-16T23:48:55.744Z,100260.84
2022-09-16T23:51:27.985Z,100248.69
2022-09-16T23:53:55.895Z,100250.44
2022-09-16T23:56:22.360Z,100255.66
2022-09-16T23:58:50.881Z,100262.59
